Time;durP1;ratioP1;P1;durP2;ratioP2;P2;SDS_P1;SDS_P2;PMS_P1;PMS_P2;Temp;Humidity;BMP_temperature;BMP_pressure;BME280_temperature;BME280_humidity;BME280_pressure;Samples;Min_cycle;Max_cycle;Signal;HPM_P1;HPM_P2
2022/10/25 03:44:12;;;;;;;16.90;8.63;;;;;;;13.44;100.00;100493.25;6639409;26;20071;-90
2022/10/25 03:47:15;;;;;;;17.05;9.10;;;;;;;13.46;100.00;100499.28;6663600;26;34583;-87
2022/10/25 03:50:17;;;;;;;16.05;9.05;;;;;;;13.50;100.00;100496.00;6642887;26;32645;-86
2022/10/25 03:53:20;;;;;;;16.75;9.18;;;;;;;13.58;100.00;100503.16;6663363;26;33685;-86
2022/10/25 03:56:23;;;;;;;16.48;8.52;;;;;;;13.66;100.00;100502.16;6643919;26;34207;-86
2022/10/25 03:59:26;;;;;;;18.87;9.38;;;;;;;13.61;100.00;100494.66;6672248;26;33809;-85
2022/10/25 04:02:29;;;;;;;20.95;10.05;;;;;;;13.60;100.00;100483.00;6650266;26;33732;-85
2022/10/25 04:05:31;;;;;;;18.42;9.48;;;;;;;13.59;100.00;100461.53;6650580;26;32215;-86
2022/10/25 04:08:36;;;;;;;20.30;9.15;;;;;;;13.52;100.00;100463.34;6673034;26;34709;-85
2022/10/25 04:11:39;;;;;;;19.42;9.48;;;;;;;13.50;100.00;100468.13;6676849;26;34203;-86
2022/10/25 04:14:41;;;;;;;18.52;9.80;;;;;;;13.60;100.00;100474.87;6668694;26;34784;-86
2022/10/25 04:17:47;;;;;;;17.70;9.35;;;;;;;13.62;100.00;100472.78;6649626;26;32592;-86
2022/10/25 04:20:50;;;;;;;20.12;9.38;;;;;;;13.62;100.00;100478.19;6666801;26;34365;-86
2022/10/25 04:23:53;;;;;;;19.75;9.88;;;;;;;13.66;100.00;100472.41;6666965;26;34003;-86
2022/10/25 04:26:56;;;;;;;17.27;9.15;;;;;;;13.66;100.00;100467.84;6663954;26;34372;-86
2022/10/25 04:29:58;;;;;;;17.52;8.75;;;;;;;13.57;100.00;100469.84;6664617;26;33421;-85
2022/10/25 04:33:01;;;;;;;17.52;8.63;;;;;;;13.57;100.00;100469.00;6643730;26;32476;-85
2022/10/25 04:36:04;;;;;;;14.07;8.02;;;;;;;13.55;100.00;100477.31;6666414;26;33958;-86
2022/10/25 04:39:07;;;;;;;18.35;9.32;;;;;;;13.59;100.00;100485.88;6667041;26;34443;-86
2022/10/25 04:42:09;;;;;;;17.75;9.25;;;;;;;13.54;100.00;100475.66;6663227;26;33823;-86
2022/10/25 04:45:12;;;;;;;16.40;8.27;;;;;;;13.51;100.00;100483.31;6662443;26;34373;-85
2022/10/25 04:48:15;;;;;;;17.83;8.43;;;;;;;13.50;100.00;100478.94;6662054;26;34030;-86
2022/10/25 04:51:18;;;;;;;15.60;8.52;;;;;;;13.52;100.00;100479.59;6662174;26;34762;-86
2022/10/25 04:54:20;;;;;;;17.87;8.70;;;;;;;13.50;100.00;100481.63;6662396;26;34238;-86
2022/10/25 04:57:24;;;;;;;17.05;8.77;;;;;;;13.50;100.00;100487.87;6642200;26;32945;-86
2022/10/25 05:00:27;;;;;;;17.55;8.82;;;;;;;13.46;100.00;100485.78;6662893;26;34047;-86
2022/10/25 05:03:30;;;;;;;18.23;8.85;;;;;;;13.47;100.00;100484.72;6662753;26;33853;-86
2022/10/25 05:06:36;;;;;;;17.62;8.48;;;;;;;13.47;100.00;100479.31;6643765;26;32412;-85
2022/10/25 05:09:44;;;;;;;18.45;9.00;;;;;;;13.53;100.00;100497.47;6662818;26;33820;-85
2022/10/25 05:12:49;;;;;;;18.75;9.00;;;;;;;13.48;100.00;100500.75;6664094;26;34066;-85
2022/10/25 05:15:56;;;;;;;18.23;9.02;;;;;;;13.46;100.00;100492.00;6673045;26;33769;-85
2022/10/25 05:19:00;;;;;;;17.40;8.98;;;;;;;13.47;100.00;100484.72;6659238;26;32614;-85
2022/10/25 05:22:02;;;;;;;17.40;9.27;;;;;;;13.46;100.00;100485.78;6676762;26;34312;-85
2022/10/25 05:25:05;;;;;;;17.73;9.05;;;;;;;13.48;100.00;100486.41;6663145;26;34027;-85
2022/10/25 05:28:08;;;;;;;15.50;8.65;;;;;;;13.49;100.00;100483.50;6662918;26;34418;-85
2022/10/25 05:31:14;;;;;;;15.77;8.43;;;;;;;13.49;100.00;100493.50;6672294;26;34590;-85
2022/10/25 05:34:17;;;;;;;15.88;8.73;;;;;;;13.45;100.00;100492.19;6679539;26;35417;-85
2022/10/25 05:37:20;;;;;;;16.65;8.48;;;;;;;13.49;100.00;100494.34;6663206;26;34017;-85
2022/10/25 05:40:23;;;;;;;13.93;7.70;;;;;;;13.53;100.00;100509.13;6644387;26;33508;-85
2022/10/25 05:43:26;;;;;;;17.17;8.45;;;;;;;13.55;100.00;100519.78;6642408;26;32421;-85
2022/10/25 05:46:28;;;;;;;17.58;8.57;;;;;;;13.56;100.00;100532.25;6662588;26;34351;-85
2022/10/25 05:49:33;;;;;;;12.80;7.37;;;;;;;13.58;100.00;100551.84;6663409;26;34843;-85
2022/10/25 05:52:35;;;;;;;12.07;6.70;;;;;;;13.66;100.00;100564.38;6662813;26;33657;-88
2022/10/25 05:55:38;;;;;;;12.48;7.45;;;;;;;13.73;100.00;100576.13;6641893;26;32350;-89
2022/10/25 05:58:41;;;;;;;14.27;6.47;;;;;;;13.73;100.00;100589.66;6662622;26;34144;-90
2022/10/25 06:01:45;;;;;;;13.43;7.53;;;;;;;13.80;100.00;100594.06;6642101;26;32669;-89
2022/10/25 06:04:48;;;;;;;14.52;7.85;;;;;;;13.81;100.00;100595.78;6642202;26;33747;-86
2022/10/25 06:07:54;;;;;;;13.20;8.30;;;;;;;13.93;100.00;100597.97;6641732;26;34103;-86
2022/10/25 06:11:08;;;;;;;18.17;9.88;;;;;;;13.93;100.00;100595.25;6662570;26;34368;-86
2022/10/25 06:14:10;;;;;;;21.10;11.60;;;;;;;13.93;100.00;100587.97;6662630;26;33595;-86
2022/10/25 06:17:13;;;;;;;19.83;11.88;;;;;;;13.87;100.00;100583.34;6662642;26;34353;-86
2022/10/25 06:20:16;;;;;;;21.58;12.35;;;;;;;13.87;100.00;100598.75;6662411;26;33951;-86
2022/10/25 06:23:18;;;;;;;22.27;13.20;;;;;;;13.86;100.00;100621.41;6662314;26;33905;-86
2022/10/25 06:26:24;;;;;;;23.90;13.32;;;;;;;13.84;100.00;100632.44;6640961;26;32318;-85
2022/10/25 06:29:27;;;;;;;23.45;12.85;;;;;;;13.79;100.00;100624.06;6662953;26;34715;-85
2022/10/25 06:32:29;;;;;;;22.55;12.50;;;;;;;13.82;100.00;100635.31;6663655;26;33967;-85
2022/10/25 06:35:33;;;;;;;24.17;12.75;;;;;;;13.88;100.00;100641.00;6663757;26;33740;-85
2022/10/25 06:38:35;;;;;;;20.23;11.75;;;;;;;13.89;100.00;100638.09;6645705;26;32767;-84
2022/10/25 06:41:39;;;;;;;23.35;12.00;;;;;;;13.95;100.00;100631.06;6665173;26;34395;-86
2022/10/25 06:44:43;;;;;;;18.62;10.43;;;;;;;13.98;100.00;100638.81;6650567;26;32436;-85
2022/10/25 06:47:46;;;;;;;16.10;9.88;;;;;;;14.12;100.00;100634.34;6676749;26;34995;-85
2022/10/25 06:51:01;;;;;;;20.15;10.82;;;;;;;14.13;100.00;100634.19;6662643;26;34225;-85
2022/10/25 06:54:06;;;;;;;17.35;10.43;;;;;;;14.16;100.00;100631.06;6663831;26;34387;-85
2022/10/25 06:57:09;;;;;;;16.30;9.98;;;;;;;14.21;100.00;100628.59;6664267;26;34420;-87
2022/10/25 07:00:12;;;;;;;17.37;10.68;;;;;;;14.23;100.00;100620.28;6662888;26;34521;-86
2022/10/25 07:03:14;;;;;;;17.67;10.60;;;;;;;14.14;100.00;100624.19;6664148;26;33630;-85
2022/10/25 07:06:21;;;;;;;15.68;9.88;;;;;;;14.25;100.00;100632.59;6664171;26;33560;-85
2022/10/25 07:09:25;;;;;;;17.05;9.55;;;;;;;14.30;100.00;100626.59;6665156;26;34185;-86
2022/10/25 07:12:29;;;;;;;17.40;9.98;;;;;;;14.28;100.00;100624.09;6667910;26;33668;-86
2022/10/25 07:15:31;;;;;;;15.57;9.50;;;;;;;14.27;100.00;100619.72;6665007;26;34325;-85
2022/10/25 07:18:35;;;;;;;18.48;9.23;;;;;;;14.34;100.00;100627.88;6667645;26;33821;-85
2022/10/25 07:21:38;;;;;;;15.45;9.15;;;;;;;14.41;100.00;100622.50;6666121;26;33617;-85
2022/10/25 07:24:41;;;;;;;14.85;9.20;;;;;;;14.43;100.00;100634.84;6668181;26;34015;-85
2022/10/25 07:27:43;;;;;;;14.02;8.55;;;;;;;14.47;100.00;100627.97;6667152;26;34076;-85
2022/10/25 07:30:48;;;;;;;13.68;7.93;;;;;;;14.58;100.00;100636.63;6666581;26;33896;-85
2022/10/25 07:33:52;;;;;;;12.88;7.32;;;;;;;14.64;100.00;100635.84;6665572;26;34552;-85
2022/10/25 07:36:55;;;;;;;12.40;7.72;;;;;;;14.55;100.00;100643.28;6665467;26;33793;-85
2022/10/25 07:39:57;;;;;;;15.13;7.20;;;;;;;14.65;100.00;100632.09;6668408;26;34287;-86
2022/10/25 07:43:00;;;;;;;16.45;7.60;;;;;;;14.63;100.00;100637.72;6671372;26;34015;-86
2022/10/25 07:46:04;;;;;;;12.68;6.85;;;;;;;14.66;100.00;100642.75;6647545;26;32702;-85
2022/10/25 07:49:08;;;;;;;11.45;6.45;;;;;;;14.72;100.00;100643.81;6669473;26;34624;-86
2022/10/25 07:52:13;;;;;;;9.15;6.35;;;;;;;14.74;100.00;100655.28;6665822;26;34329;-88
2022/10/25 07:55:16;;;;;;;12.00;6.50;;;;;;;14.87;100.00;100665.41;6666239;26;33699;-88
2022/10/25 07:58:19;;;;;;;7.18;4.78;;;;;;;15.00;100.00;100654.59;6666185;26;35353;-88
2022/10/25 08:01:25;;;;;;;4.70;3.28;;;;;;;14.95;100.00;100657.94;6665627;26;34753;-84
2022/10/25 08:04:30;;;;;;;4.37;3.22;;;;;;;15.03;100.00;100658.78;6644372;26;33073;-84
2022/10/25 08:07:35;;;;;;;6.20;3.70;;;;;;;15.10;100.00;100670.53;6664328;26;35253;-84
2022/10/25 08:10:40;;;;;;;6.22;3.87;;;;;;;15.00;100.00;100664.63;6667677;26;34966;-83
2022/10/25 08:13:42;;;;;;;7.18;4.12;;;;;;;15.02;100.00;100663.38;6662720;26;32453;-83
2022/10/25 08:16:45;;;;;;;8.27;5.03;;;;;;;14.99;100.00;100669.22;6667989;26;33831;-84
2022/10/25 08:19:48;;;;;;;9.50;5.35;;;;;;;15.02;100.00;100663.38;6664662;26;34231;-84
2022/10/25 08:22:57;;;;;;;8.77;5.55;;;;;;;14.91;100.00;100667.50;6642692;26;32635;-84
2022/10/25 08:26:00;;;;;;;10.27;6.35;;;;;;;14.91;100.00;100675.62;6662363;26;34635;-84
2022/10/25 08:29:03;;;;;;;9.85;6.18;;;;;;;14.90;100.00;100667.69;6663184;26;34147;-83
2022/10/25 08:32:06;;;;;;;13.80;6.60;;;;;;;14.90;100.00;100663.13;6663461;26;35018;-83
2022/10/25 08:35:08;;;;;;;13.77;7.00;;;;;;;14.85;100.00;100651.19;6663758;26;34326;-85
2022/10/25 08:38:11;;;;;;;13.90;6.90;;;;;;;14.93;100.00;100656.47;6663385;26;34098;-84
2022/10/25 08:41:42;;;;;;;9.68;6.43;;;;;;;14.93;100.00;100651.03;6642817;26;32325;-84
2022/10/25 08:44:54;;;;;;;10.73;6.35;;;;;;;14.91;100.00;100655.81;6643128;26;32417;-83
2022/10/25 08:47:57;;;;;;;11.23;6.62;;;;;;;14.96;100.00;100667.72;6665103;26;34088;-84
2022/10/25 08:51:04;;;;;;;9.82;6.57;;;;;;;15.09;100.00;100672.41;6663493;26;34461;-84
2022/10/25 08:54:30;;;;;;;10.82;6.80;;;;;;;15.19;100.00;100674.75;6643341;26;32222;-84
2022/10/25 08:57:39;;;;;;;11.38;6.70;;;;;;;15.31;100.00;100683.16;6642775;26;32604;-84
2022/10/25 09:00:46;;;;;;;10.18;6.30;;;;;;;15.40;100.00;100688.19;6663902;26;34104;-82
2022/10/25 09:03:48;;;;;;;8.80;6.12;;;;;;;15.62;100.00;100691.66;6663796;26;34560;-84
2022/10/25 09:06:51;;;;;;;9.05;6.30;;;;;;;15.76;100.00;100705.28;6664730;26;34000;-86
2022/10/25 09:10:24;;;;;;;9.98;6.00;;;;;;;15.79;100.00;100697.56;6665028;26;34849;-89
2022/10/25 09:13:39;;;;;;;10.68;6.28;;;;;;;15.78;100.00;100708.63;6649322;26;34175;-84
2022/10/25 09:17:00;;;;;;;8.57;6.45;;;;;;;15.87;100.00;100701.97;6651043;26;31915;-85
2022/10/25 09:20:06;;;;;;;10.13;6.35;;;;;;;15.99;100.00;100702.22;6671175;26;34550;-84
2022/10/25 09:23:24;;;;;;;12.77;6.12;;;;;;;15.99;100.00;100694.91;6663006;26;33783;-85
2022/10/25 09:26:41;;;;;;;9.82;6.30;;;;;;;15.76;100.00;100695.25;6642039;26;32328;-84
2022/10/25 09:30:04;;;;;;;12.20;6.78;;;;;;;15.75;100.00;100690.03;6663781;26;34308;-85
2022/10/25 09:33:11;;;;;;;6.93;5.60;;;;;;;15.69;100.00;100702.53;6662644;26;34507;-83
2022/10/25 09:36:14;;;;;;;8.57;6.40;;;;;;;15.72;100.00;100704.03;6662223;26;33994;-84
2022/10/25 09:39:26;;;;;;;9.88;6.43;;;;;;;15.64;100.00;100696.84;6662790;26;34383;-84
2022/10/25 09:42:38;;;;;;;10.73;6.75;;;;;;;15.72;100.00;100695.88;6642427;26;33405;-84
2022/10/25 09:45:51;;;;;;;9.45;6.25;;;;;;;15.78;100.00;100703.22;6666569;26;34455;-84
2022/10/25 09:49:23;;;;;;;9.10;6.30;;;;;;;15.75;100.00;100704.44;6677268;26;35370;-89
2022/10/25 09:52:29;;;;;;;9.55;6.95;;;;;;;15.79;100.00;100707.59;6625827;26;34411;-85
2022/10/25 09:55:45;;;;;;;11.18;6.47;;;;;;;15.73;100.00;100698.37;6663540;26;34620;-84
2022/10/25 09:58:48;;;;;;;13.25;7.35;;;;;;;15.79;100.00;100694.00;6635946;26;153349;-84
2022/10/25 10:01:50;;;;;;;11.23;7.47;;;;;;;15.87;100.00;100707.41;6641039;26;34614;-84
2022/10/25 10:04:54;;;;;;;12.32;7.30;;;;;;;15.99;100.00;100719.34;6641758;26;33976;-86
2022/10/25 10:07:56;;;;;;;11.23;7.28;;;;;;;15.93;100.00;100713.91;6662222;26;34875;-86
2022/10/25 10:10:59;;;;;;;10.98;7.82;;;;;;;15.87;100.00;100726.41;6663334;26;34808;-87
2022/10/25 10:14:02;;;;;;;9.35;6.68;;;;;;;15.94;100.00;100738.16;6662162;26;33400;-86
2022/10/25 10:17:16;;;;;;;11.88;7.18;;;;;;;16.04;100.00;100732.31;6641761;26;34240;-86
2022/10/25 10:20:18;;;;;;;8.57;6.97;;;;;;;15.83;100.00;100727.88;6662954;26;34741;-86
2022/10/25 10:23:21;;;;;;;8.73;5.82;;;;;;;15.89;100.00;100726.22;6662667;26;33746;-86
2022/10/25 10:26:53;;;;;;;11.07;6.07;;;;;;;15.82;100.00;100718.03;6641410;26;32873;-86
2022/10/25 10:30:02;;;;;;;8.90;6.18;;;;;;;15.72;100.00;100713.00;6641719;26;33183;-86
2022/10/25 10:33:08;;;;;;;8.43;5.55;;;;;;;15.70;100.00;100703.38;6661637;26;33630;-86
2022/10/25 10:36:26;;;;;;;9.10;5.95;;;;;;;15.64;100.00;100702.28;6661641;26;34276;-86
2022/10/25 10:39:29;;;;;;;6.78;5.32;;;;;;;15.60;100.00;100714.59;6642275;26;32713;-86
2022/10/25 10:42:34;;;;;;;7.85;5.65;;;;;;;15.71;100.00;100708.63;6640890;26;33761;-90
2022/10/25 10:45:47;;;;;;;9.40;5.53;;;;;;;15.91;100.00;100708.66;6641599;26;32287;-90
2022/10/25 10:48:55;;;;;;;10.68;6.18;;;;;;;15.95;100.00;100701.78;6662777;26;34028;-86
2022/10/25 10:51:57;;;;;;;7.82;5.75;;;;;;;15.80;100.00;100712.81;6664362;26;34299;-86
2022/10/25 10:55:01;;;;;;;10.43;6.35;;;;;;;15.83;100.00;100725.16;6664212;26;32664;-87
2022/10/25 10:58:12;;;;;;;10.57;6.40;;;;;;;15.91;100.00;100724.94;6668609;26;35606;-86
2022/10/25 11:01:30;;;;;;;8.95;5.78;;;;;;;16.65;99.96;100717.75;6662551;26;34805;-86
2022/10/25 11:04:45;;;;;;;8.55;5.65;;;;;;;17.84;92.54;100712.06;6662935;26;34017;-86
2022/10/25 11:08:08;;;;;;;10.57;5.65;;;;;;;18.46;86.38;100716.91;6662062;26;35056;-86
2022/10/25 11:11:21;;;;;;;7.18;5.10;;;;;;;17.88;88.27;100726.09;6656217;26;34718;-86
2022/10/25 11:14:24;;;;;;;7.43;5.25;;;;;;;18.09;87.99;100723.00;6656211;26;33599;-86
2022/10/25 11:17:35;;;;;;;5.55;4.37;;;;;;;18.88;83.07;100726.22;6656047;26;34113;-87
2022/10/25 11:20:51;;;;;;;7.10;4.37;;;;;;;19.67;76.47;100723.72;6656879;26;33883;-86
2022/10/25 11:24:24;;;;;;;6.15;4.50;;;;;;;20.60;72.44;100715.03;6658990;26;34117;-86
2022/10/25 11:28:05;;;;;;;8.52;3.40;;;;;;;21.71;67.92;100708.75;6656677;26;34311;-90
2022/10/25 11:31:22;;;;;;;5.65;3.17;;;;;;;21.73;65.19;100706.59;6656706;26;34098;-87
2022/10/25 11:34:48;;;;;;;4.37;3.33;;;;;;;21.57;65.12;100705.47;6656348;26;34673;-86
2022/10/25 11:38:01;;;;;;;4.20;3.22;;;;;;;21.55;65.38;100713.09;6662031;26;33643;-86
2022/10/25 11:41:19;;;;;;;4.78;3.45;;;;;;;22.61;62.27;100713.47;6657811;26;33610;-86
2022/10/25 11:44:46;;;;;;;5.95;3.35;;;;;;;23.84;56.61;100714.34;6656920;26;33660;-86
2022/10/25 11:48:09;;;;;;;7.68;3.20;;;;;;;24.43;53.79;100708.94;6658319;26;33608;-86
2022/10/25 11:51:56;;;;;;;5.53;3.53;;;;;;;26.61;49.81;100704.69;6637924;26;33283;-86
2022/10/25 11:55:35;;;;;;;3.22;2.92;;;;;;;28.07;43.08;100708.41;6664128;26;34104;-87
2022/10/25 11:58:47;;;;;;;;;;;;;;;29.35;39.60;100710.06;6680704;26;34944;-87
2022/10/25 12:02:33;;;;;;;5.47;2.92;;;;;;;28.70;41.22;100697.41;6670433;26;34822;-87
2022/10/25 12:05:58;;;;;;;3.42;2.85;;;;;;;30.78;36.42;100683.00;6613857;26;33518;-87
2022/10/25 12:09:09;;;;;;;2.40;2.20;;;;;;;32.01;33.90;100691.66;6664992;26;33876;-87
2022/10/25 12:12:17;;;;;;;4.68;2.62;;;;;;;31.04;35.57;100691.72;6641041;26;32351;-90
2022/10/25 12:15:26;;;;;;;6.40;2.53;;;;;;;29.10;39.48;100689.81;6641190;26;34078;-91
2022/10/25 12:18:45;;;;;;;2.25;1.77;;;;;;;28.87;38.68;100685.03;6641431;26;33685;-88
2022/10/25 12:21:52;;;;;;;2.72;2.17;;;;;;;27.22;42.27;100684.44;6641133;26;32624;-87
2022/10/25 12:25:04;;;;;;;2.70;1.85;;;;;;;26.88;42.73;100690.59;6662323;26;35768;-87
2022/10/25 12:28:18;;;;;;;1.80;1.52;;;;;;;27.13;41.94;100699.91;6662526;26;33868;-87
2022/10/25 12:31:27;;;;;;;2.30;1.58;;;;;;;29.35;37.05;100694.25;6665501;26;35660;-87
2022/10/25 12:35:05;;;;;;;2.40;1.77;;;;;;;29.79;35.83;100684.00;6643869;26;32382;-87
2022/10/25 12:38:19;;;;;;;4.10;2.05;;;;;;;28.66;37.26;100693.56;6607029;26;34867;-87
2022/10/25 12:41:35;;;;;;;4.20;1.90;;;;;;;27.63;40.17;100702.81;6645489;26;32730;-87
2022/10/25 12:44:52;;;;;;;3.30;2.10;;;;;;;25.34;45.74;100702.44;6664538;26;33983;-87
2022/10/25 12:48:24;;;;;;;4.10;2.57;;;;;;;22.95;52.78;100707.97;6664510;26;33580;-87
2022/10/25 12:52:01;;;;;;;3.62;1.98;;;;;;;21.28;58.28;100704.53;6650306;26;33972;-87
2022/10/25 12:55:19;;;;;;;3.58;2.47;;;;;;;20.74;61.26;100710.19;6663313;26;33893;-86
2022/10/25 13:03:05;;;;;;;5.35;2.37;;;;;;;19.66;66.66;100698.31;6659891;26;20071;-88
2022/10/25 13:06:36;;;;;;;2.67;2.10;;;;;;;19.25;67.38;100694.34;6567712;26;20032;-88
2022/10/25 13:13:50;;;;;;;3.50;2.28;;;;;;;19.28;67.19;100689.50;6570573;27;20084;-88
2022/10/25 13:17:15;;;;;;;3.80;1.73;;;;;;;18.94;70.06;100700.75;6552489;27;33469;-88
2022/10/25 13:24:38;;;;;;;3.00;1.83;;;;;;;18.57;70.23;100697.09;6578434;27;20056;-88
2022/10/25 13:28:12;;;;;;;3.65;2.05;;;;;;;18.46;70.67;100689.66;6602321;26;34130;-87
2022/10/25 13:31:33;;;;;;;4.00;2.47;;;;;;;18.43;71.05;100687.34;6606811;26;35422;-87
2022/10/25 13:34:39;;;;;;;3.28;2.53;;;;;;;18.28;73.12;100691.25;6639697;26;33823;-88
2022/10/25 13:37:52;;;;;;;3.15;2.22;;;;;;;18.21;75.28;100695.06;6624360;26;32857;-89
2022/10/25 13:41:43;;;;;;;2.30;1.85;;;;;;;18.24;74.52;100700.06;6638047;26;33927;-88
2022/10/25 13:45:30;;;;;;;2.40;2.20;;;;;;;18.17;75.50;100704.75;6633820;26;34295;-87
2022/10/25 13:48:47;;;;;;;3.85;2.10;;;;;;;18.07;76.93;100702.50;6614828;26;33390;-87
2022/10/25 13:51:55;;;;;;;5.03;2.17;;;;;;;18.04;77.07;100703.75;6646143;26;35029;-86
2022/10/25 13:54:57;;;;;;;3.85;1.90;;;;;;;18.01;76.90;100700.63;6642833;26;34277;-88
2022/10/25 13:58:00;;;;;;;3.05;1.90;;;;;;;18.05;76.46;100712.78;6646070;26;34613;-87
2022/10/25 14:01:13;;;;;;;7.57;2.00;;;;;;;18.02;77.59;100708.63;6625886;26;34192;-87
2022/10/25 14:04:42;;;;;;;;;;;;;;;18.05;76.04;100712.78;6643335;26;34914;-87
2022/10/25 14:07:47;;;;;;;3.40;1.80;;;;;;;17.92;76.95;100710.97;6650751;26;34375;-87
2022/10/25 14:15:36;;;;;;;4.55;1.90;;;;;;;17.81;78.00;100709.78;6639587;26;20067;-88
2022/10/25 14:18:39;;;;;;;4.90;2.10;;;;;;;17.74;77.13;100717.09;6557094;27;33773;-88
2022/10/25 14:22:00;;;;;;;3.45;1.83;;;;;;;17.69;77.77;100714.19;6611007;26;34299;-86
2022/10/25 14:25:19;;;;;;;2.55;1.62;;;;;;;17.69;77.38;100714.19;6634640;26;34303;-86
2022/10/25 14:28:26;;;;;;;1.65;1.55;;;;;;;17.65;77.73;100729.28;6615321;26;32300;-86
2022/10/25 14:31:28;;;;;;;2.50;1.80;;;;;;;17.59;77.80;100728.25;6621267;26;33130;-86
2022/10/25 14:34:31;;;;;;;3.08;2.00;;;;;;;17.51;78.37;100736.66;6651268;26;34102;-86
2022/10/25 14:37:41;;;;;;;4.10;2.10;;;;;;;17.45;79.87;100729.38;6636059;26;33988;-86
2022/10/25 14:40:57;;;;;;;3.03;1.50;;;;;;;17.36;82.04;100725.22;6634344;26;33981;-86
2022/10/25 14:44:01;;;;;;;4.25;1.80;;;;;;;17.32;80.87;100730.25;6634446;26;35043;-85
2022/10/25 14:47:03;;;;;;;2.12;1.95;;;;;;;17.19;82.63;100727.53;6614233;26;33383;-86
2022/10/25 14:50:13;;;;;;;2.90;2.10;;;;;;;17.14;83.25;100730.91;6615086;26;32504;-87
2022/10/25 14:53:17;;;;;;;3.35;2.08;;;;;;;17.07;83.11;100734.69;6634552;26;34768;-87
2022/10/25 14:56:25;;;;;;;3.78;1.58;;;;;;;17.04;84.62;100732.41;6614272;26;34087;-87
2022/10/25 14:59:47;;;;;;;3.08;2.05;;;;;;;16.93;85.29;100737.41;6637347;26;34417;-87
2022/10/25 15:02:58;;;;;;;2.28;2.00;;;;;;;16.80;86.31;100731.16;6636381;26;33983;-87
2022/10/25 15:06:04;;;;;;;3.85;2.50;;;;;;;16.76;85.85;100737.03;6636918;26;33667;-87
2022/10/25 15:09:18;;;;;;;3.35;2.03;;;;;;;16.73;88.03;100740.12;6615391;26;33229;-87
2022/10/25 15:12:49;;;;;;;4.57;2.05;;;;;;;16.63;87.25;100736.16;6615159;26;32538;-87
2022/10/25 15:15:53;;;;;;;4.05;2.20;;;;;;;16.51;88.48;100734.06;6635007;26;34059;-87
2022/10/25 15:19:15;;;;;;;3.00;1.80;;;;;;;16.35;89.37;100742.63;6636549;26;34049;-87
2022/10/25 15:22:27;;;;;;;2.25;2.05;;;;;;;16.33;90.05;100739.28;6637071;26;35511;-87
2022/10/25 15:25:36;;;;;;;3.20;2.17;;;;;;;16.33;88.58;100742.81;6637259;26;34094;-87
2022/10/25 15:28:47;;;;;;;3.15;1.75;;;;;;;16.25;88.20;100744.91;6614694;26;32433;-86
2022/10/25 15:31:49;;;;;;;2.10;1.90;;;;;;;16.18;87.58;100744.06;6615263;26;32951;-86
2022/10/25 15:34:55;;;;;;;4.82;1.92;;;;;;;16.16;86.74;100752.41;6636361;26;34003;-87
2022/10/25 15:37:58;;;;;;;2.60;2.00;;;;;;;16.03;88.11;100750.50;6616679;26;32825;-87
2022/10/25 15:41:01;;;;;;;4.65;2.20;;;;;;;15.91;90.00;100760.25;6636959;26;34106;-87
2022/10/25 15:44:04;;;;;;;1.98;1.83;;;;;;;15.71;90.78;100759.37;6622316;26;32800;-87
2022/10/25 15:47:26;;;;;;;2.30;1.73;;;;;;;15.56;93.31;100756.72;6641094;26;34330;-86
2022/10/25 15:50:29;;;;;;;5.57;2.20;;;;;;;15.46;93.49;100758.97;6621240;26;32479;-91
2022/10/25 15:53:32;;;;;;;2.90;2.25;;;;;;;15.32;94.22;100761.59;6639550;26;33940;-91
